createdAt,value
2023-03-31T05:50:58.890Z,20.23
2023-03-31T05:53:27.292Z,19.83
2023-03-31T05:56:02.924Z,19.27
2023-03-31T05:58:30.672Z,19.23
2023-03-31T06:01:10.019Z,19.87
2023-03-31T06:03:39.228Z,19.77
2023-03-31T06:06:08.160Z,19.73
2023-03-31T06:08:36.311Z,21.20
2023-03-31T06:11:06.630Z,20.93
2023-03-31T06:13:34.968Z,21.53
2023-03-31T06:16:02.471Z,21.97
2023-03-31T06:18:30.671Z,21.00
2023-03-31T06:20:58.461Z,21.97
2023-03-31T06:23:26.568Z,20.77
2023-03-31T06:25:54.266Z,21.30
2023-03-31T06:28:22.124Z,20.83
2023-03-31T06:30:49.459Z,21.40
2023-03-31T06:33:16.769Z,20.57
2023-03-31T06:35:44.069Z,20.93
2023-03-31T06:38:11.371Z,21.47
2023-03-31T06:40:38.772Z,19.77
2023-03-31T06:43:06.158Z,19.73
2023-03-31T06:45:33.470Z,20.33
2023-03-31T06:48:00.911Z,20.77
2023-03-31T06:50:28.218Z,20.83
2023-03-31T06:52:55.964Z,19.83
2023-03-31T06:55:23.412Z,21.77
2023-03-31T06:57:51.212Z,26.47
2023-03-31T07:00:21.520Z,21.70
2023-03-31T07:02:50.611Z,20.00
2023-03-31T07:05:21.658Z,20.73
2023-03-31T07:07:49.538Z,20.80
2023-03-31T07:10:16.882Z,20.47
2023-03-31T07:12:44.169Z,20.73
2023-03-31T07:15:11.519Z,20.77
2023-03-31T07:17:42.170Z,19.27
2023-03-31T07:20:13.105Z,19.67
2023-03-31T07:22:41.600Z,20.50
2023-03-31T07:25:09.509Z,19.73
2023-03-31T07:27:37.075Z,20.33
2023-03-31T07:30:08.280Z,19.73
2023-03-31T07:32:40.194Z,20.13
2023-03-31T07:35:08.522Z,22.40
2023-03-31T07:37:39.313Z,20.97
2023-03-31T07:40:07.011Z,19.93
2023-03-31T07:42:35.665Z,21.60
2023-03-31T07:45:03.355Z,22.70
2023-03-31T07:47:30.805Z,23.17
2023-03-31T07:49:58.433Z,21.77
2023-03-31T07:52:25.985Z,22.33
2023-03-31T07:54:53.344Z,22.27
2023-03-31T07:57:20.846Z,22.87
2023-03-31T07:59:48.339Z,22.20
2023-03-31T08:02:17.019Z,21.63
2023-03-31T08:04:45.395Z,24.27
2023-03-31T08:07:14.311Z,20.90
2023-03-31T08:09:41.493Z,20.13
2023-03-31T08:12:08.454Z,19.63
2023-03-31T08:14:41.306Z,18.70
2023-03-31T08:17:10.304Z,17.17
2023-03-31T08:19:37.965Z,17.20
2023-03-31T08:22:05.722Z,17.53
2023-03-31T08:24:33.054Z,16.80
2023-03-31T08:27:00.429Z,17.30
2023-03-31T08:29:27.796Z,16.33
2023-03-31T08:31:55.953Z,16.40
2023-03-31T08:34:23.307Z,15.50
2023-03-31T08:36:50.780Z,16.13
2023-03-31T08:39:18.479Z,15.90
2023-03-31T08:41:54.706Z,16.80
2023-03-31T08:44:26.000Z,16.40
2023-03-31T08:46:55.665Z,16.43
2023-03-31T08:49:23.988Z,17.70
2023-03-31T08:51:53.680Z,17.23
2023-03-31T08:54:45.221Z,16.87
2023-03-31T08:57:44.378Z,15.27
2023-03-31T09:00:17.235Z,14.18
2023-03-31T09:02:53.026Z,13.40
2023-03-31T09:05:35.835Z,13.65
2023-03-31T09:08:10.889Z,16.60
2023-03-31T09:10:57.062Z,12.90
2023-03-31T09:13:27.231Z,13.63
2023-03-31T09:15:57.180Z,12.73
2023-03-31T09:18:30.570Z,12.85
2023-03-31T09:21:18.157Z,12.15
2023-03-31T09:23:57.625Z,12.23
2023-03-31T09:26:28.176Z,11.63
2023-03-31T09:28:58.458Z,11.95
2023-03-31T09:31:26.691Z,11.77
2023-03-31T09:33:59.759Z,11.15
2023-03-31T09:36:27.401Z,10.65
2023-03-31T09:38:54.744Z,10.77
2023-03-31T09:41:22.080Z,10.40
2023-03-31T09:43:51.747Z,9.23
2023-03-31T09:46:32.375Z,9.45
2023-03-31T09:49:16.448Z,9.05
2023-03-31T09:51:49.069Z,8.98
2023-03-31T09:54:37.271Z,10.07
2023-03-31T09:57:13.778Z,9.80
2023-03-31T09:59:42.075Z,9.50
2023-03-31T10:02:22.135Z,10.52
2023-03-31T10:04:49.308Z,9.23
2023-03-31T10:07:23.120Z,9.18
2023-03-31T10:09:51.607Z,8.70
2023-03-31T10:12:24.477Z,7.68
2023-03-31T10:14:54.302Z,8.20
2023-03-31T10:17:23.865Z,8.23
2023-03-31T10:19:54.714Z,7.57
2023-03-31T10:22:22.101Z,6.93
2023-03-31T10:24:51.593Z,7.07
2023-03-31T10:27:30.728Z,6.85
2023-03-31T10:30:02.770Z,6.30
2023-03-31T10:32:33.807Z,5.90
2023-03-31T10:35:34.122Z,7.28
2023-03-31T10:38:14.648Z,6.55
2023-03-31T10:40:54.885Z,5.75
2023-03-31T10:43:30.415Z,5.18
2023-03-31T10:46:02.313Z,5.40
2023-03-31T10:48:32.439Z,5.55
2023-03-31T10:51:04.708Z,5.18
2023-03-31T10:53:42.587Z,4.15
2023-03-31T10:56:28.846Z,4.60
2023-03-31T10:59:05.762Z,4.55
2023-03-31T11:02:23.289Z,4.75
2023-03-31T11:04:56.703Z,4.68
2023-03-31T11:07:49.031Z,5.05
2023-03-31T11:10:35.017Z,4.40
2023-03-31T11:13:33.967Z,4.15
2023-03-31T11:16:30.554Z,4.40
2023-03-31T11:19:03.650Z,4.60
2023-03-31T11:21:41.425Z,4.40
2023-03-31T11:24:23.004Z,4.90
2023-03-31T11:27:16.752Z,5.90
2023-03-31T11:30:08.835Z,4.93
2023-03-31T11:33:08.130Z,4.93
2023-03-31T11:35:35.824Z,4.55
2023-03-31T11:38:34.540Z,4.78
2023-03-31T11:41:27.471Z,5.38
2023-03-31T11:44:02.623Z,4.82
2023-03-31T11:46:41.767Z,5.07
2023-03-31T11:49:18.218Z,4.97
2023-03-31T11:51:59.743Z,5.43
2023-03-31T11:54:36.680Z,5.30
2023-03-31T11:57:14.076Z,5.60
2023-03-31T11:59:43.822Z,5.68
2023-03-31T12:02:24.611Z,5.88
2023-03-31T12:04:57.484Z,6.05
2023-03-31T12:07:44.881Z,5.85
2023-03-31T12:10:23.680Z,6.22
2023-03-31T12:13:00.592Z,5.97
2023-03-31T12:15:37.506Z,6.30
2023-03-31T12:18:16.571Z,6.10
2023-03-31T12:20:53.631Z,6.32
2023-03-31T12:23:28.049Z,6.55
2023-03-31T12:26:08.579Z,6.20
2023-03-31T12:28:39.084Z,6.38
2023-03-31T12:31:11.748Z,6.00
2023-03-31T12:33:42.528Z,6.43
2023-03-31T12:36:47.864Z,6.18
2023-03-31T12:39:49.851Z,6.38
2023-03-31T12:42:40.912Z,6.40
2023-03-31T12:46:05.237Z,6.30
2023-03-31T12:48:55.526Z,5.55
2023-03-31T12:52:00.316Z,6.43
2023-03-31T12:54:33.479Z,6.22
2023-03-31T12:57:00.751Z,6.35
2023-03-31T12:59:42.544Z,6.40
2023-03-31T13:02:12.244Z,6.22
2023-03-31T13:04:40.586Z,5.28
2023-03-31T13:07:29.034Z,6.15
2023-03-31T13:09:59.024Z,5.40
2023-03-31T13:12:28.676Z,6.13
2023-03-31T13:15:00.307Z,5.18
2023-03-31T13:17:33.954Z,5.13
2023-03-31T13:20:18.231Z,4.90
2023-03-31T13:22:52.169Z,5.18
2023-03-31T13:25:27.739Z,5.22
2023-03-31T13:27:55.520Z,5.20
2023-03-31T13:30:40.356Z,5.20
2023-03-31T13:33:28.421Z,4.50
2023-03-31T13:36:32.650Z,4.82
2023-03-31T13:39:18.084Z,4.40
2023-03-31T13:42:06.309Z,3.80
2023-03-31T13:44:39.370Z,4.30
2023-03-31T13:47:36.695Z,3.85
2023-03-31T13:50:40.988Z,3.80
2023-03-31T13:53:27.285Z,4.13
2023-03-31T13:56:12.694Z,3.85
2023-03-31T13:58:56.644Z,3.75
2023-03-31T14:01:51.001Z,3.90
2023-03-31T14:04:43.004Z,3.78
2023-03-31T14:07:17.740Z,4.07
2023-03-31T14:09:52.089Z,3.92
2023-03-31T14:12:33.068Z,5.32
2023-03-31T14:15:00.632Z,5.03
2023-03-31T14:17:30.360Z,4.38
2023-03-31T14:20:18.775Z,5.97
2023-03-31T14:22:59.540Z,8.45
2023-03-31T14:25:50.454Z,3.97
2023-03-31T14:28:54.281Z,3.72
2023-03-31T14:31:35.349Z,3.65
2023-03-31T14:34:19.562Z,3.75
2023-03-31T14:36:59.243Z,3.65
2023-03-31T14:39:33.981Z,3.72
2023-03-31T14:42:11.688Z,4.18
2023-03-31T14:44:39.608Z,4.55
2023-03-31T14:47:06.878Z,4.10
2023-03-31T14:49:38.841Z,4.07
2023-03-31T14:52:14.036Z,4.60
2023-03-31T14:54:43.861Z,4.95
2023-03-31T14:57:13.562Z,5.60
2023-03-31T14:59:40.960Z,4.15
2023-03-31T15:02:19.271Z,4.60
2023-03-31T15:04:49.150Z,4.68
2023-03-31T15:07:17.454Z,4.35
2023-03-31T15:09:51.476Z,4.40
2023-03-31T15:12:21.955Z,4.70
2023-03-31T15:14:53.446Z,4.30
2023-03-31T15:17:29.776Z,4.28
2023-03-31T15:20:01.381Z,4.20
2023-03-31T15:22:29.864Z,4.53
2023-03-31T15:24:57.567Z,4.03
2023-03-31T15:27:56.415Z,4.30
2023-03-31T15:30:25.631Z,4.22
2023-03-31T15:32:58.796Z,9.52
2023-03-31T15:35:33.783Z,3.80
2023-03-31T15:38:03.643Z,3.60
2023-03-31T15:40:36.669Z,3.47
2023-03-31T15:43:20.576Z,3.60
2023-03-31T15:45:57.538Z,3.20
2023-03-31T15:48:38.735Z,3.30
2023-03-31T15:51:25.609Z,2.97
2023-03-31T15:53:54.882Z,3.10
2023-03-31T15:56:33.488Z,3.13
2023-03-31T15:59:04.527Z,3.25
2023-03-31T16:01:38.980Z,3.58
2023-03-31T16:04:14.846Z,3.13
2023-03-31T16:06:50.638Z,3.30
2023-03-31T16:09:28.783Z,2.85
2023-03-31T16:12:02.396Z,2.72
2023-03-31T16:14:34.073Z,2.95
2023-03-31T16:17:09.585Z,2.67
2023-03-31T16:19:50.899Z,3.17
2023-03-31T16:22:22.419Z,3.30
2023-03-31T16:24:50.315Z,2.70
2023-03-31T16:27:17.845Z,3.00
2023-03-31T16:29:45.068Z,2.63
2023-03-31T16:32:13.514Z,2.28
2023-03-31T16:34:58.642Z,2.30
2023-03-31T16:37:26.359Z,2.15
2023-03-31T16:39:53.827Z,2.53
2023-03-31T16:42:21.436Z,2.67
2023-03-31T16:44:59.984Z,2.55
2023-03-31T16:47:38.500Z,2.30
2023-03-31T16:50:07.673Z,3.10
2023-03-31T16:52:36.128Z,5.82
2023-03-31T16:55:03.414Z,3.10
2023-03-31T16:57:30.631Z,2.72
2023-03-31T17:00:00.661Z,2.63
2023-03-31T17:02:28.389Z,3.00
2023-03-31T17:04:59.721Z,2.92
2023-03-31T17:07:53.425Z,2.70
2023-03-31T17:10:24.831Z,2.50
2023-03-31T17:12:52.587Z,2.50
2023-03-31T17:15:19.801Z,2.33
2023-03-31T17:17:47.917Z,2.30
2023-03-31T17:20:15.068Z,2.40
2023-03-31T17:22:42.246Z,2.42
2023-03-31T17:25:12.039Z,2.83
2023-03-31T17:27:39.896Z,2.38
2023-03-31T17:30:09.217Z,2.80
2023-03-31T17:32:37.139Z,3.97
2023-03-31T17:35:04.689Z,4.05
2023-03-31T17:37:34.060Z,4.75
2023-03-31T17:40:01.230Z,3.30
2023-03-31T17:42:28.231Z,3.40
2023-03-31T17:44:56.983Z,4.35
2023-03-31T17:47:24.227Z,4.50
2023-03-31T17:49:51.395Z,5.47
2023-03-31T17:52:18.378Z,6.10
2023-03-31T17:54:45.480Z,6.47
2023-03-31T17:57:15.330Z,7.07
2023-03-31T17:59:43.473Z,7.47
2023-03-31T18:02:16.245Z,7.57
2023-03-31T18:04:43.230Z,8.53
2023-03-31T18:07:11.569Z,8.02
2023-03-31T18:09:39.708Z,8.77
2023-03-31T18:12:07.575Z,8.70
2023-03-31T18:14:34.567Z,9.27
2023-03-31T18:17:02.301Z,9.52
2023-03-31T18:19:30.061Z,10.07
2023-03-31T18:21:57.087Z,9.83
2023-03-31T18:24:24.147Z,10.65
2023-03-31T18:26:51.138Z,10.13
2023-03-31T18:29:18.107Z,10.05
2023-03-31T18:31:45.307Z,11.63
2023-03-31T18:34:13.573Z,17.58
2023-03-31T18:36:40.796Z,10.80
2023-03-31T18:39:07.966Z,10.13
2023-03-31T18:41:34.939Z,10.47
2023-03-31T18:44:01.926Z,11.63
2023-03-31T18:46:29.290Z,10.77
2023-03-31T18:48:56.822Z,10.27
2023-03-31T18:51:24.134Z,10.77
2023-03-31T18:53:51.620Z,9.60
2023-03-31T18:56:19.205Z,8.43
2023-03-31T18:58:47.285Z,8.40
2023-03-31T19:01:14.779Z,8.57
2023-03-31T19:03:44.919Z,8.40
2023-03-31T19:06:12.305Z,7.82
2023-03-31T19:08:40.165Z,7.50
2023-03-31T19:11:12.777Z,7.00
2023-03-31T19:13:42.051Z,16.13
2023-03-31T19:16:10.104Z,13.13
2023-03-31T19:18:37.585Z,14.82
2023-03-31T19:21:05.241Z,10.45
2023-03-31T19:23:33.370Z,9.40
2023-03-31T19:26:00.816Z,8.98
2023-03-31T19:28:29.853Z,8.80
2023-03-31T19:30:58.123Z,7.95
2023-03-31T19:33:26.688Z,8.65
2023-03-31T19:35:55.117Z,9.45
2023-03-31T19:38:23.257Z,10.98
2023-03-31T19:40:51.149Z,11.05
2023-03-31T19:43:22.018Z,11.02
2023-03-31T19:45:50.777Z,12.18
2023-03-31T19:48:19.540Z,12.98
2023-03-31T19:50:54.109Z,12.55
2023-03-31T19:53:21.904Z,13.55
2023-03-31T19:55:58.596Z,12.70
2023-03-31T19:58:27.166Z,9.77
2023-03-31T20:00:55.402Z,10.80
2023-03-31T20:03:24.188Z,11.65
2023-03-31T20:05:53.765Z,11.40
2023-03-31T20:08:24.451Z,11.82
2023-03-31T20:10:52.198Z,10.80
2023-03-31T20:13:19.669Z,11.55
2023-03-31T20:15:47.059Z,11.23
2023-03-31T20:18:14.533Z,12.55
2023-03-31T20:20:42.090Z,12.90
2023-03-31T20:23:10.410Z,14.18
2023-03-31T20:25:37.862Z,15.10
2023-03-31T20:28:05.427Z,14.88
2023-03-31T20:30:32.814Z,15.32
2023-03-31T20:33:00.146Z,15.77
2023-03-31T20:35:28.240Z,17.95
2023-03-31T20:37:55.644Z,16.42
2023-03-31T20:40:23.629Z,15.95
2023-03-31T20:42:51.034Z,16.17
2023-03-31T20:45:18.422Z,26.58
2023-03-31T20:47:46.750Z,23.45
2023-03-31T20:50:14.587Z,21.00
2023-03-31T20:52:43.573Z,16.30
2023-03-31T20:55:10.879Z,15.60
2023-03-31T20:57:38.266Z,15.30
2023-03-31T21:00:07.120Z,16.33
2023-03-31T21:02:36.991Z,15.88
